Aviation Digital Data Service (ADDS)

Output produced by METARs form (2014 UTC 23 January 2019)
found at http://www.aviationweather.gov/metar/data/
 
METAR text: RJFK 231200Z 31009KT 9999 FEW025 BKN040 05/01 Q1018 RMK 1CU025 5CU040 A3008
Conditions at: RJFK (KAGOSHIMA AIRPOR, JP) observed 1200 UTC 23 January 2019
Temperature: 5.0°C (41°F)
Dewpoint: 1.0°C (34°F) [RH = 75%]
Pressure (altimeter): 30.06 inches Hg (1018.0 mb)
Winds: from the NW (310 degrees) at 10 MPH (9 knots; 4.6 m/s)
Visibility: 6 or more miles (10+ km)
Ceiling: 4000 feet AGL
Clouds: few clouds at 2500 feet AGL
broken clouds at 4000 feet AGL
Weather: no significant weather observed at this time

METAR text: RJFK 231100Z 33008KT 9999 FEW025 07/02 Q1018 RMK 1CU025 A3008
Conditions at: RJFK (KAGOSHIMA AIRPOR, JP) observed 1100 UTC 23 January 2019
Temperature: 7.0°C (45°F)
Dewpoint: 2.0°C (36°F) [RH = 70%]
Pressure (altimeter): 30.06 inches Hg (1018.0 mb)
Winds: from the NNW (330 degrees) at 9 MPH (8 knots; 4.1 m/s)
Visibility: 6 or more miles (10+ km)
Ceiling: at least 12,000 feet AGL
Clouds: few clouds at 2500 feet AGL
Weather: no significant weather observed at this time

METAR text: RJFK 231000Z 32009KT 9999 FEW025 08/01 Q1018 RMK 1CU025 A3007
Conditions at: RJFK (KAGOSHIMA AIRPOR, JP) observed 1000 UTC 23 January 2019
Temperature: 8.0°C (46°F)
Dewpoint: 1.0°C (34°F) [RH = 61%]
Pressure (altimeter): 30.06 inches Hg (1018.0 mb)
Winds: from the NW (320 degrees) at 10 MPH (9 knots; 4.6 m/s)
Visibility: 6 or more miles (10+ km)
Ceiling: at least 12,000 feet AGL
Clouds: few clouds at 2500 feet AGL
Weather: no significant weather observed at this time

METAR text: RJFK 230900Z 30008KT 9999 FEW025 08/01 Q1018 RMK 1CU025 A3006 VOLCANIC ASH CLOUD S
Conditions at: RJFK (KAGOSHIMA AIRPOR, JP) observed 0900 UTC 23 January 2019
Temperature: 8.0°C (46°F)
Dewpoint: 1.0°C (34°F) [RH = 61%]
Pressure (altimeter): 30.06 inches Hg (1018.0 mb)
Winds: from the WNW (300 degrees) at 9 MPH (8 knots; 4.1 m/s)
Visibility: 6 or more miles (10+ km)
Ceiling: at least 12,000 feet AGL
Clouds: few clouds at 2500 feet AGL
Weather: no significant weather observed at this time

METAR text: RJFK 230800Z 30012KT 9999 FEW025 11/00 Q1017 RMK 1CU025 A3005 VOLCANIC ASH CLOUD S
Conditions at: RJFK (KAGOSHIMA AIRPOR, JP) observed 0800 UTC 23 January 2019
Temperature: 11.0°C (52°F)
Dewpoint: 0.0°C (32°F) [RH = 47%]
Pressure (altimeter): 30.03 inches Hg (1017.0 mb)
Winds: from the WNW (300 degrees) at 14 MPH (12 knots; 6.2 m/s)
Visibility: 6 or more miles (10+ km)
Ceiling: at least 12,000 feet AGL
Clouds: few clouds at 2500 feet AGL
Weather: no significant weather observed at this time

METAR text: RJFK 230700Z 30011KT 9999 FEW025 SCT040 12/00 Q1017 RMK 1CU025 4CU040 A3006 VOLCANIC ASH CLOUD S
Conditions at: RJFK (KAGOSHIMA AIRPOR, JP) observed 0700 UTC 23 January 2019
Temperature: 12.0°C (54°F)
Dewpoint: 0.0°C (32°F) [RH = 44%]
Pressure (altimeter): 30.03 inches Hg (1017.0 mb)
Winds: from the WNW (300 degrees) at 13 MPH (11 knots; 5.7 m/s)
Visibility: 6 or more miles (10+ km)
Ceiling: at least 12,000 feet AGL
Clouds: few clouds at 2500 feet AGL
scattered clouds at 4000 feet AGL
Weather: no significant weather observed at this time

METAR text: RJFK 230600Z 31012KT 280V340 9999 FEW025 BKN040 12/01 Q1018 RMK 1CU025 5CU040 A3007 VOLCANIC ASH CLOUD S
Conditions at: RJFK (KAGOSHIMA AIRPOR, JP) observed 0600 UTC 23 January 2019
Temperature: 12.0°C (54°F)
Dewpoint: 1.0°C (34°F) [RH = 47%]
Pressure (altimeter): 30.06 inches Hg (1018.0 mb)
Winds: from the NW (310 degrees) at 14 MPH (12 knots; 6.2 m/s)
Visibility: 6 or more miles (10+ km)
Ceiling: 4000 feet AGL
Clouds: few clouds at 2500 feet AGL
broken clouds at 4000 feet AGL
Weather: no significant weather observed at this time

METAR text: RJFK 230500Z 32012KT 290V350 9999 FEW025 BKN040 12/01 Q1018 RMK 1CU025 6CU040 A3007
Conditions at: RJFK (KAGOSHIMA AIRPOR, JP) observed 0500 UTC 23 January 2019
Temperature: 12.0°C (54°F)
Dewpoint: 1.0°C (34°F) [RH = 47%]
Pressure (altimeter): 30.06 inches Hg (1018.0 mb)
Winds: from the NW (320 degrees) at 14 MPH (12 knots; 6.2 m/s)
Visibility: 6 or more miles (10+ km)
Ceiling: 4000 feet AGL
Clouds: few clouds at 2500 feet AGL
broken clouds at 4000 feet AGL
Weather: no significant weather observed at this time

METAR text: RJFK 230400Z 33012KT 9999 FEW025 BKN040 11/01 Q1018 RMK 1CU025 6CU040 A3008
Conditions at: RJFK (KAGOSHIMA AIRPOR, JP) observed 0400 UTC 23 January 2019
Temperature: 11.0°C (52°F)
Dewpoint: 1.0°C (34°F) [RH = 50%]
Pressure (altimeter): 30.06 inches Hg (1018.0 mb)
Winds: from the NNW (330 degrees) at 14 MPH (12 knots; 6.2 m/s)
Visibility: 6 or more miles (10+ km)
Ceiling: 4000 feet AGL
Clouds: few clouds at 2500 feet AGL
broken clouds at 4000 feet AGL
Weather: no significant weather observed at this time

METAR text: RJFK 230300Z 31013KT 9999 FEW025 BKN035 12/01 Q1019 RMK 1CU025 5CU035 A3010
Conditions at: RJFK (KAGOSHIMA AIRPOR, JP) observed 0300 UTC 23 January 2019
Temperature: 12.0°C (54°F)
Dewpoint: 1.0°C (34°F) [RH = 47%]
Pressure (altimeter): 30.09 inches Hg (1019.0 mb)
Winds: from the NW (310 degrees) at 15 MPH (13 knots; 6.7 m/s)
Visibility: 6 or more miles (10+ km)
Ceiling: 3500 feet AGL
Clouds: few clouds at 2500 feet AGL
broken clouds at 3500 feet AGL
Weather: no significant weather observed at this time

METAR text: RJFK 230200Z 31011KT 9999 FEW030 10/00 Q1019
Conditions at: RJFK (KAGOSHIMA AIRPOR, JP) observed 0200 UTC 23 January 2019
Temperature: 10.0°C (50°F)
Dewpoint: 0.0°C (32°F) [RH = 50%]
Pressure (altimeter): 30.09 inches Hg (1019.0 mb)
Winds: from the NW (310 degrees) at 13 MPH (11 knots; 5.7 m/s)
Visibility: 6 or more miles (10+ km)
Ceiling: at least 12,000 feet AGL
Clouds: few clouds at 3000 feet AGL
Weather: no significant weather observed at this time

METAR text: RJFK 230100Z 35006KT CAVOK 09/00 Q1019 RMK A3010
Conditions at: RJFK (KAGOSHIMA AIRPOR, JP) observed 0100 UTC 23 January 2019
Temperature: 9.0°C (48°F)
Dewpoint: 0.0°C (32°F) [RH = 53%]
Pressure (altimeter): 30.09 inches Hg (1019.0 mb)
Winds: from the N (350 degrees) at 7 MPH (6 knots; 3.1 m/s)
Visibility: 6 or more miles (10+ km)
Ceiling: ceiling and visibility are OK
Clouds: unknown
Weather: no significant weather observed at this time

METAR text: RJFK 230000Z 33009KT 9999 FEW030 07/01 Q1019 RMK 1CU030 A3009
Conditions at: RJFK (KAGOSHIMA AIRPOR, JP) observed 0000 UTC 23 January 2019
Temperature: 7.0°C (45°F)
Dewpoint: 1.0°C (34°F) [RH = 66%]
Pressure (altimeter): 30.09 inches Hg (1019.0 mb)
Winds: from the NNW (330 degrees) at 10 MPH (9 knots; 4.6 m/s)
Visibility: 6 or more miles (10+ km)
Ceiling: at least 12,000 feet AGL
Clouds: few clouds at 3000 feet AGL
Weather: no significant weather observed at this time

METAR text: RJFK 222300Z 29005KT 260V330 9999 FEW030 05/M00 Q1018 RMK 1CU030 A3009
Conditions at: RJFK (KAGOSHIMA AIRPOR, JP) observed 2300 UTC 22 January 2019
Temperature: 5.0°C (41°F)
Dewpoint: 0.0°C (32°F) [RH = 70%]
Pressure (altimeter): 30.06 inches Hg (1018.0 mb)
Winds: from the WNW (290 degrees) at 6 MPH (5 knots; 2.6 m/s)
Visibility: 6 or more miles (10+ km)
Ceiling: at least 12,000 feet AGL
Clouds: few clouds at 3000 feet AGL
Weather: no significant weather observed at this time

METAR text: RJFK 222200Z 31008KT 9999 FEW020 04/M01 Q1018 RMK 1CU020 A3008
Conditions at: RJFK (KAGOSHIMA AIRPOR, JP) observed 2200 UTC 22 January 2019
Temperature: 4.0°C (39°F)
Dewpoint: -1.0°C (30°F) [RH = 70%]
Pressure (altimeter): 30.06 inches Hg (1018.0 mb)
Winds: from the NW (310 degrees) at 9 MPH (8 knots; 4.1 m/s)
Visibility: 6 or more miles (10+ km)
Ceiling: at least 12,000 feet AGL
Clouds: few clouds at 2000 feet AGL
Weather: no significant weather observed at this time

METAR text: RJFK 222100Z 32010KT 9999 FEW020 04/M01 Q1018 RMK 1CU020 A3007
Conditions at: RJFK (KAGOSHIMA AIRPOR, JP) observed 2100 UTC 22 January 2019
Temperature: 4.0°C (39°F)
Dewpoint: -1.0°C (30°F) [RH = 70%]
Pressure (altimeter): 30.06 inches Hg (1018.0 mb)
Winds: from the NW (320 degrees) at 12 MPH (10 knots; 5.1 m/s)
Visibility: 6 or more miles (10+ km)
Ceiling: at least 12,000 feet AGL
Clouds: few clouds at 2000 feet AGL
Weather: no significant weather observed at this time

METAR text: RJFK 221200Z 35009KT 9999 FEW030 04/M00 Q1018 RMK 1CU030 A3007
Conditions at: RJFK (KAGOSHIMA AIRPOR, JP) observed 1200 UTC 22 January 2019
Temperature: 4.0°C (39°F)
Dewpoint: 0.0°C (32°F) [RH = 75%]
Pressure (altimeter): 30.06 inches Hg (1018.0 mb)
Winds: from the N (350 degrees) at 10 MPH (9 knots; 4.6 m/s)
Visibility: 6 or more miles (10+ km)
Ceiling: at least 12,000 feet AGL
Clouds: few clouds at 3000 feet AGL
Weather: no significant weather observed at this time

METAR text: RJFK 221100Z 33007KT 9999 FEW030 04/M01 Q1018 RMK 1CU030 A3007
Conditions at: RJFK (KAGOSHIMA AIRPOR, JP) observed 1100 UTC 22 January 2019
Temperature: 4.0°C (39°F)
Dewpoint: -1.0°C (30°F) [RH = 70%]
Pressure (altimeter): 30.06 inches Hg (1018.0 mb)
Winds: from the NNW (330 degrees) at 8 MPH (7 knots; 3.6 m/s)
Visibility: 6 or more miles (10+ km)
Ceiling: at least 12,000 feet AGL
Clouds: few clouds at 3000 feet AGL
Weather: no significant weather observed at this time

METAR text: RJFK 221000Z 34008KT 9999 FEW030 SCT/// 05/M00 Q1017 RMK 1CU030 A3005
Conditions at: RJFK (KAGOSHIMA AIRPOR, JP) observed 1000 UTC 22 January 2019
Temperature: 5.0°C (41°F)
Dewpoint: 0.0°C (32°F) [RH = 70%]
Pressure (altimeter): 30.03 inches Hg (1017.0 mb)
Winds: from the NNW (340 degrees) at 9 MPH (8 knots; 4.1 m/s)
Visibility: 6 or more miles (10+ km)
Ceiling: at least 12,000 feet AGL
Clouds: few clouds at 3000 feet AGL
Weather: no significant weather observed at this time

METAR text: RJFK 220900Z 33010KT 9999 FEW030 06/M00 Q1017 RMK 1CU030 A3003 VOLCANIC ASH CLOUD S
Conditions at: RJFK (KAGOSHIMA AIRPOR, JP) observed 0900 UTC 22 January 2019
Temperature: 6.0°C (43°F)
Dewpoint: 0.0°C (32°F) [RH = 65%]
Pressure (altimeter): 30.03 inches Hg (1017.0 mb)
Winds: from the NNW (330 degrees) at 12 MPH (10 knots; 5.1 m/s)
Visibility: 6 or more miles (10+ km)
Ceiling: at least 12,000 feet AGL
Clouds: few clouds at 3000 feet AGL
Weather: no significant weather observed at this time

Forecast for: RJFK (KAGOSHIMA AIRPOR, JP)
Text: TAF RJFK 231708Z 2318/2500 34007KT 9999 FEW020
Forecast period: 1800 UTC 23 January 2019 to 0000 UTC 25 January 2019
Forecast type: FROM: standard forecast or significant change
Winds: from the NNW (340 degrees) at 8 MPH (7 knots; 3.6 m/s)
Visibility: 6 or more miles 10+ km)
Ceiling: at least 12,000 feet AGL
Clouds: few clouds at 2000 feet AGL
Weather: no significant weather forecast for this period